sensor_id;sensor_type;location;lat;lon;timestamp;pressure;altitude;pressure_sealevel;temperature
13304;BMP280;6720;51.958;4.540;2023-07-13T00:02:15;101249.66;;;20.59
13304;BMP280;6720;51.958;4.540;2023-07-13T00:04:41;101250.50;;;20.59
13304;BMP280;6720;51.958;4.540;2023-07-13T00:07:07;101242.81;;;20.70
13304;BMP280;6720;51.958;4.540;2023-07-13T00:09:33;101243.78;;;20.52
13304;BMP280;6720;51.958;4.540;2023-07-13T00:11:58;101236.75;;;20.68
13304;BMP280;6720;51.958;4.540;2023-07-13T00:14:26;101240.09;;;20.72
13304;BMP280;6720;51.958;4.540;2023-07-13T00:16:52;101243.31;;;20.61
13304;BMP280;6720;51.958;4.540;2023-07-13T00:19:18;101238.53;;;20.68
13304;BMP280;6720;51.958;4.540;2023-07-13T00:21:44;101238.78;;;20.46
13304;BMP280;6720;51.958;4.540;2023-07-13T00:24:15;101249.72;;;20.74
13304;BMP280;6720;51.958;4.540;2023-07-13T00:26:43;101245.25;;;20.75
13304;BMP280;6720;51.958;4.540;2023-07-13T00:29:12;101247.47;;;20.67
13304;BMP280;6720;51.958;4.540;2023-07-13T00:31:38;101255.66;;;20.62
13304;BMP280;6720;51.958;4.540;2023-07-13T00:34:03;101261.38;;;20.72
13304;BMP280;6720;51.958;4.540;2023-07-13T00:36:30;101252.66;;;20.85
13304;BMP280;6720;51.958;4.540;2023-07-13T00:38:56;101250.63;;;20.90
13304;BMP280;6720;51.958;4.540;2023-07-13T00:41:21;101244.84;;;20.99
13304;BMP280;6720;51.958;4.540;2023-07-13T00:43:47;101236.78;;;20.84
13304;BMP280;6720;51.958;4.540;2023-07-13T00:46:22;101229.66;;;20.84
13304;BMP280;6720;51.958;4.540;2023-07-13T00:48:49;101241.00;;;20.88
13304;BMP280;6720;51.958;4.540;2023-07-13T00:51:23;101260.59;;;20.70
13304;BMP280;6720;51.958;4.540;2023-07-13T00:53:51;101252.06;;;20.63
13304;BMP280;6720;51.958;4.540;2023-07-13T00:56:18;101243.16;;;20.64
13304;BMP280;6720;51.958;4.540;2023-07-13T00:58:44;101252.38;;;20.74
13304;BMP280;6720;51.958;4.540;2023-07-13T01:01:10;101247.50;;;20.82
13304;BMP280;6720;51.958;4.540;2023-07-13T01:03:38;101246.31;;;20.88
13304;BMP280;6720;51.958;4.540;2023-07-13T01:06:05;101241.41;;;20.63
13304;BMP280;6720;51.958;4.540;2023-07-13T01:08:31;101244.50;;;20.56
13304;BMP280;6720;51.958;4.540;2023-07-13T01:10:57;101246.28;;;20.72
13304;BMP280;6720;51.958;4.540;2023-07-13T01:13:24;101249.41;;;20.80
13304;BMP280;6720;51.958;4.540;2023-07-13T01:15:51;101257.69;;;20.74
13304;BMP280;6720;51.958;4.540;2023-07-13T01:18:21;101255.13;;;20.56
13304;BMP280;6720;51.958;4.540;2023-07-13T01:20:57;101253.56;;;20.52
13304;BMP280;6720;51.958;4.540;2023-07-13T01:23:24;101263.97;;;20.73
13304;BMP280;6720;51.958;4.540;2023-07-13T01:25:51;101266.78;;;20.53
13304;BMP280;6720;51.958;4.540;2023-07-13T01:28:17;101271.91;;;20.22
13304;BMP280;6720;51.958;4.540;2023-07-13T01:30:44;101263.56;;;20.47
13304;BMP280;6720;51.958;4.540;2023-07-13T01:33:15;101262.50;;;20.51
13304;BMP280;6720;51.958;4.540;2023-07-13T01:35:42;101267.25;;;20.44
13304;BMP280;6720;51.958;4.540;2023-07-13T01:38:10;101274.59;;;20.39
13304;BMP280;6720;51.958;4.540;2023-07-13T01:40:38;101269.34;;;20.38
13304;BMP280;6720;51.958;4.540;2023-07-13T01:43:04;101269.53;;;20.52
13304;BMP280;6720;51.958;4.540;2023-07-13T01:45:29;101271.38;;;20.50
13304;BMP280;6720;51.958;4.540;2023-07-13T01:47:55;101276.00;;;20.29
13304;BMP280;6720;51.958;4.540;2023-07-13T01:50:21;101284.63;;;20.34
13304;BMP280;6720;51.958;4.540;2023-07-13T01:52:46;101277.97;;;20.26
13304;BMP280;6720;51.958;4.540;2023-07-13T01:55:12;101282.53;;;20.22
13304;BMP280;6720;51.958;4.540;2023-07-13T01:57:39;101278.19;;;20.21
13304;BMP280;6720;51.958;4.540;2023-07-13T02:00:09;101280.44;;;20.12
13304;BMP280;6720;51.958;4.540;2023-07-13T02:02:35;101284.59;;;20.17
13304;BMP280;6720;51.958;4.540;2023-07-13T02:05:00;101283.34;;;20.24
13304;BMP280;6720;51.958;4.540;2023-07-13T02:07:26;101282.25;;;20.28
13304;BMP280;6720;51.958;4.540;2023-07-13T02:09:51;101283.53;;;20.38
13304;BMP280;6720;51.958;4.540;2023-07-13T02:12:17;101288.38;;;20.47
13304;BMP280;6720;51.958;4.540;2023-07-13T02:14:42;101281.50;;;20.43
13304;BMP280;6720;51.958;4.540;2023-07-13T02:17:09;101280.97;;;20.18
13304;BMP280;6720;51.958;4.540;2023-07-13T02:19:35;101277.19;;;20.05
13304;BMP280;6720;51.958;4.540;2023-07-13T02:22:00;101281.13;;;19.97
13304;BMP280;6720;51.958;4.540;2023-07-13T02:24:26;101277.19;;;20.05
13304;BMP280;6720;51.958;4.540;2023-07-13T02:26:52;101277.56;;;20.16
13304;BMP280;6720;51.958;4.540;2023-07-13T02:29:17;101275.22;;;20.09
13304;BMP280;6720;51.958;4.540;2023-07-13T02:31:43;101267.50;;;20.04
13304;BMP280;6720;51.958;4.540;2023-07-13T02:34:08;101266.13;;;20.14
13304;BMP280;6720;51.958;4.540;2023-07-13T02:36:34;101282.00;;;19.79
13304;BMP280;6720;51.958;4.540;2023-07-13T02:39:04;101277.84;;;20.10
13304;BMP280;6720;51.958;4.540;2023-07-13T02:41:30;101277.19;;;20.05
13304;BMP280;6720;51.958;4.540;2023-07-13T02:43:57;101282.53;;;20.22
13304;BMP280;6720;51.958;4.540;2023-07-13T02:46:28;101276.38;;;20.03
13304;BMP280;6720;51.958;4.540;2023-07-13T02:48:54;101276.81;;;20.13
13304;BMP280;6720;51.958;4.540;2023-07-13T02:51:19;101271.72;;;20.08
13304;BMP280;6720;51.958;4.540;2023-07-13T02:53:45;101280.72;;;20.06
13304;BMP280;6720;51.958;4.540;2023-07-13T02:56:10;101274.81;;;19.99
13304;BMP280;6720;51.958;4.540;2023-07-13T02:58:36;101280.84;;;20.03
13304;BMP280;6720;51.958;4.540;2023-07-13T03:01:07;101274.91;;;20.16
13304;BMP280;6720;51.958;4.540;2023-07-13T03:03:33;101279.59;;;20.11
13304;BMP280;6720;51.958;4.540;2023-07-13T03:06:01;101279.97;;;20.02
13304;BMP280;6720;51.958;4.540;2023-07-13T03:08:27;101283.00;;;20.13
13304;BMP280;6720;51.958;4.540;2023-07-13T03:11:03;101283.50;;;20.21
13304;BMP280;6720;51.958;4.540;2023-07-13T03:13:29;101282.53;;;20.22
13304;BMP280;6720;51.958;4.540;2023-07-13T03:15:54;101284.72;;;20.14
13304;BMP280;6720;51.958;4.540;2023-07-13T03:18:23;101281.06;;;20.17
13304;BMP280;6720;51.958;4.540;2023-07-13T03:20:51;101281.16;;;20.15
13304;BMP280;6720;51.958;4.540;2023-07-13T03:23:19;101277.41;;;20.19
13304;BMP280;6720;51.958;4.540;2023-07-13T03:25:45;101273.25;;;20.14
13304;BMP280;6720;51.958;4.540;2023-07-13T03:28:14;101283.41;;;20.23
13304;BMP280;6720;51.958;4.540;2023-07-13T03:30:40;101285.06;;;20.25
13304;BMP280;6720;51.958;4.540;2023-07-13T03:33:05;101290.53;;;20.04
13304;BMP280;6720;51.958;4.540;2023-07-13T03:35:31;101288.94;;;20.18
13304;BMP280;6720;51.958;4.540;2023-07-13T03:37:58;101289.44;;;20.26
13304;BMP280;6720;51.958;4.540;2023-07-13T03:40:26;101291.66;;;20.35
13304;BMP280;6720;51.958;4.540;2023-07-13T03:42:52;101288.66;;;20.41
13304;BMP280;6720;51.958;4.540;2023-07-13T03:45:18;101292.75;;;20.31
13304;BMP280;6720;51.958;4.540;2023-07-13T03:47:44;101299.09;;;20.46
13304;BMP280;6720;51.958;4.540;2023-07-13T03:50:10;101293.31;;;20.55
13304;BMP280;6720;51.958;4.540;2023-07-13T03:52:35;101294.09;;;20.40
13304;BMP280;6720;51.958;4.540;2023-07-13T03:55:01;101297.50;;;20.25
13304;BMP280;6720;51.958;4.540;2023-07-13T03:57:26;101304.94;;;20.35
13304;BMP280;6720;51.958;4.540;2023-07-13T03:59:52;101308.38;;;20.37
13304;BMP280;6720;51.958;4.540;2023-07-13T04:02:18;101304.13;;;20.16
13304;BMP280;6720;51.958;4.540;2023-07-13T04:04:44;101307.22;;;20.43
13304;BMP280;6720;51.958;4.540;2023-07-13T04:07:09;101310.53;;;20.48
13304;BMP280;6720;51.958;4.540;2023-07-13T04:09:35;101311.84;;;20.39
13304;BMP280;6720;51.958;4.540;2023-07-13T04:12:01;101317.16;;;20.39
13304;BMP280;6720;51.958;4.540;2023-07-13T04:14:26;101308.84;;;20.28
13304;BMP280;6720;51.958;4.540;2023-07-13T04:16:52;101318.88;;;20.40
13304;BMP280;6720;51.958;4.540;2023-07-13T04:19:20;101318.72;;;20.43
13304;BMP280;6720;51.958;4.540;2023-07-13T04:21:45;101321.19;;;20.29
13304;BMP280;6720;51.958;4.540;2023-07-13T04:24:11;101320.38;;;20.46
13304;BMP280;6720;51.958;4.540;2023-07-13T04:26:37;101323.81;;;20.48
13304;BMP280;6720;51.958;4.540;2023-07-13T04:29:04;101324.56;;;20.68
13304;BMP280;6720;51.958;4.540;2023-07-13T04:31:30;101326.75;;;20.60
13304;BMP280;6720;51.958;4.540;2023-07-13T04:33:56;101325.97;;;20.75
13304;BMP280;6720;51.958;4.540;2023-07-13T04:36:21;101326.50;;;20.82
13304;BMP280;6720;51.958;4.540;2023-07-13T04:38:47;101330.25;;;20.61
13304;BMP280;6720;51.958;4.540;2023-07-13T04:41:15;101335.34;;;20.65
13304;BMP280;6720;51.958;4.540;2023-07-13T04:43:41;101335.03;;;20.54
13304;BMP280;6720;51.958;4.540;2023-07-13T04:46:09;101335.25;;;20.50
13304;BMP280;6720;51.958;4.540;2023-07-13T04:48:36;101330.78;;;20.50
13304;BMP280;6720;51.958;4.540;2023-07-13T04:51:02;101334.88;;;20.74
13304;BMP280;6720;51.958;4.540;2023-07-13T04:53:28;101335.97;;;20.87
13304;BMP280;6720;51.958;4.540;2023-07-13T04:55:54;101334.09;;;20.72
13304;BMP280;6720;51.958;4.540;2023-07-13T04:58:20;101339.13;;;20.95
13304;BMP280;6720;51.958;4.540;2023-07-13T05:00:46;101339.06;;;20.97
13304;BMP280;6720;51.958;4.540;2023-07-13T05:03:12;101341.22;;;20.72
13304;BMP280;6720;51.958;4.540;2023-07-13T05:05:40;101338.56;;;21.06
13304;BMP280;6720;51.958;4.540;2023-07-13T05:08:05;101343.09;;;21.21
13304;BMP280;6720;51.958;4.540;2023-07-13T05:10:32;101345.00;;;21.02
13304;BMP280;6720;51.958;4.540;2023-07-13T05:12:58;101354.16;;;20.79
13304;BMP280;6720;51.958;4.540;2023-07-13T05:15:23;101353.16;;;20.63
13304;BMP280;6720;51.958;4.540;2023-07-13T05:17:50;101358.06;;;20.72
13304;BMP280;6720;51.958;4.540;2023-07-13T05:20:17;101354.97;;;20.98
13304;BMP280;6720;51.958;4.540;2023-07-13T05:22:43;101355.41;;;21.06
13304;BMP280;6720;51.958;4.540;2023-07-13T05:25:09;101351.63;;;21.27
13304;BMP280;6720;51.958;4.540;2023-07-13T05:27:35;101357.75;;;21.12
13304;BMP280;6720;51.958;4.540;2023-07-13T05:30:02;101359.00;;;20.88
13304;BMP280;6720;51.958;4.540;2023-07-13T05:32:28;101366.16;;;21.05
13304;BMP280;6720;51.958;4.540;2023-07-13T05:34:54;101364.94;;;21.27
13304;BMP280;6720;51.958;4.540;2023-07-13T05:37:19;101366.84;;;21.08
13304;BMP280;6720;51.958;4.540;2023-07-13T05:39:45;101378.84;;;21.00
13304;BMP280;6720;51.958;4.540;2023-07-13T05:42:11;101381.25;;;21.21
13304;BMP280;6720;51.958;4.540;2023-07-13T05:44:36;101379.16;;;20.94
13304;BMP280;6720;51.958;4.540;2023-07-13T05:47:02;101378.75;;;21.18
13304;BMP280;6720;51.958;4.540;2023-07-13T05:49:28;101380.78;;;20.96
13304;BMP280;6720;51.958;4.540;2023-07-13T05:51:55;101382.03;;;21.23
13304;BMP280;6720;51.958;4.540;2023-07-13T05:54:21;101389.56;;;20.98
13304;BMP280;6720;51.958;4.540;2023-07-13T05:56:46;101396.59;;;21.16
13304;BMP280;6720;51.958;4.540;2023-07-13T05:59:12;101387.25;;;20.74
13304;BMP280;6720;51.958;4.540;2023-07-13T06:01:37;101394.06;;;20.79
13304;BMP280;6720;51.958;4.540;2023-07-13T06:04:03;101398.53;;;20.43
13304;BMP280;6720;51.958;4.540;2023-07-13T06:06:29;101405.41;;;20.30
13304;BMP280;6720;51.958;4.540;2023-07-13T06:08:54;101419.72;;;19.89
13304;BMP280;6720;51.958;4.540;2023-07-13T06:11:22;101413.34;;;19.93
13304;BMP280;6720;51.958;4.540;2023-07-13T06:13:48;101410.31;;;19.82
13304;BMP280;6720;51.958;4.540;2023-07-13T06:16:14;101416.75;;;19.77
13304;BMP280;6720;51.958;4.540;2023-07-13T06:18:41;101421.88;;;19.81
13304;BMP280;6720;51.958;4.540;2023-07-13T06:21:12;101415.31;;;19.88
13304;BMP280;6720;51.958;4.540;2023-07-13T06:23:38;101430.06;;;19.95
13304;BMP280;6720;51.958;4.540;2023-07-13T06:26:04;101429.78;;;20.01
13304;BMP280;6720;51.958;4.540;2023-07-13T06:28:30;101429.72;;;20.03
13304;BMP280;6720;51.958;4.540;2023-07-13T06:30:57;101429.47;;;20.07
13304;BMP280;6720;51.958;4.540;2023-07-13T06:33:23;101416.50;;;20.20
13304;BMP280;6720;51.958;4.540;2023-07-13T06:35:48;101421.75;;;20.21
13304;BMP280;6720;51.958;4.540;2023-07-13T06:38:14;101416.75;;;20.15
13304;BMP280;6720;51.958;4.540;2023-07-13T06:40:40;101419.97;;;20.22
13304;BMP280;6720;51.958;4.540;2023-07-13T06:43:06;101431.53;;;20.39
13304;BMP280;6720;51.958;4.540;2023-07-13T06:45:39;101428.59;;;20.45
13304;BMP280;6720;51.958;4.540;2023-07-13T06:48:05;101425.47;;;20.54
13304;BMP280;6720;51.958;4.540;2023-07-13T06:50:31;101429.56;;;20.61
13304;BMP280;6720;51.958;4.540;2023-07-13T06:52:56;101422.31;;;20.82
13304;BMP280;6720;51.958;4.540;2023-07-13T06:55:22;101432.72;;;20.86
13304;BMP280;6720;51.958;4.540;2023-07-13T06:57:47;101430.59;;;20.76
13304;BMP280;6720;51.958;4.540;2023-07-13T07:00:13;101434.13;;;20.76
13304;BMP280;6720;51.958;4.540;2023-07-13T07:02:39;101425.91;;;20.81
13304;BMP280;6720;51.958;4.540;2023-07-13T07:05:04;101422.38;;;20.99
13304;BMP280;6720;51.958;4.540;2023-07-13T07:07:30;101438.91;;;21.22
13304;BMP280;6720;51.958;4.540;2023-07-13T07:09:55;101442.97;;;21.12
13304;BMP280;6720;51.958;4.540;2023-07-13T07:12:21;101439.81;;;21.04
13304;BMP280;6720;51.958;4.540;2023-07-13T07:14:47;101439.06;;;21.19
13304;BMP280;6720;51.958;4.540;2023-07-13T07:17:12;101447.97;;;21.52
13304;BMP280;6720;51.958;4.540;2023-07-13T07:19:38;101453.78;;;21.43
13304;BMP280;6720;51.958;4.540;2023-07-13T07:22:03;101445.00;;;21.41
13304;BMP280;6720;51.958;4.540;2023-07-13T07:24:29;101444.19;;;21.57
13304;BMP280;6720;51.958;4.540;2023-07-13T07:26:55;101441.56;;;21.22
13304;BMP280;6720;51.958;4.540;2023-07-13T07:29:20;101450.34;;;21.07
13304;BMP280;6720;51.958;4.540;2023-07-13T07:31:47;101457.84;;;20.99
13304;BMP280;6720;51.958;4.540;2023-07-13T07:34:12;101452.03;;;21.08
13304;BMP280;6720;51.958;4.540;2023-07-13T07:36:38;101462.06;;;21.03
13304;BMP280;6720;51.958;4.540;2023-07-13T07:39:03;101463.16;;;21.16
13304;BMP280;6720;51.958;4.540;2023-07-13T07:41:30;101466.16;;;21.10
13304;BMP280;6720;51.958;4.540;2023-07-13T07:43:55;101467.00;;;21.11
13304;BMP280;6720;51.958;4.540;2023-07-13T07:46:21;101468.38;;;21.36
13304;BMP280;6720;51.958;4.540;2023-07-13T07:48:46;101467.09;;;21.26
13304;BMP280;6720;51.958;4.540;2023-07-13T07:51:11;101467.72;;;21.14
13304;BMP280;6720;51.958;4.540;2023-07-13T07:53:37;101472.44;;;21.26
13304;BMP280;6720;51.958;4.540;2023-07-13T07:56:03;101475.78;;;21.13
13304;BMP280;6720;51.958;4.540;2023-07-13T07:58:28;101471.94;;;21.35
13304;BMP280;6720;51.958;4.540;2023-07-13T08:00:54;101475.88;;;21.63
13304;BMP280;6720;51.958;4.540;2023-07-13T08:03:19;101481.50;;;21.57
13304;BMP280;6720;51.958;4.540;2023-07-13T08:05:44;101471.00;;;21.88
13304;BMP280;6720;51.958;4.540;2023-07-13T08:08:10;101494.00;;;21.73
13304;BMP280;6720;51.958;4.540;2023-07-13T08:10:36;101467.22;;;21.92
13304;BMP280;6720;51.958;4.540;2023-07-13T08:13:02;101475.81;;;22.29
13304;BMP280;6720;51.958;4.540;2023-07-13T08:15:28;101477.56;;;21.98
13304;BMP280;6720;51.958;4.540;2023-07-13T08:17:54;101481.03;;;21.83
13304;BMP280;6720;51.958;4.540;2023-07-13T08:20:19;101478.22;;;21.86
13304;BMP280;6720;51.958;4.540;2023-07-13T08:22:45;101469.28;;;21.87
13304;BMP280;6720;51.958;4.540;2023-07-13T08:25:11;101476.75;;;21.80
13304;BMP280;6720;51.958;4.540;2023-07-13T08:27:36;101475.84;;;21.97
13304;BMP280;6720;51.958;4.540;2023-07-13T08:30:04;101484.38;;;22.19
13304;BMP280;6720;51.958;4.540;2023-07-13T08:32:31;101488.06;;;22.01
13304;BMP280;6720;51.958;4.540;2023-07-13T08:34:58;101473.81;;;21.68
13304;BMP280;6720;51.958;4.540;2023-07-13T08:37:23;101484.47;;;21.68
13304;BMP280;6720;51.958;4.540;2023-07-13T08:39:49;101484.00;;;21.94
13304;BMP280;6720;51.958;4.540;2023-07-13T08:42:37;101484.00;;;21.94
13304;BMP280;6720;51.958;4.540;2023-07-13T08:45:20;101487.41;;;22.13
13304;BMP280;6720;51.958;4.540;2023-07-13T08:47:52;101498.69;;;21.85
13304;BMP280;6720;51.958;4.540;2023-07-13T08:50:21;101491.16;;;21.59
13304;BMP280;6720;51.958;4.540;2023-07-13T08:52:49;101488.47;;;21.93
13304;BMP280;6720;51.958;4.540;2023-07-13T08:55:17;101496.59;;;21.75
13304;BMP280;6720;51.958;4.540;2023-07-13T08:57:47;101483.78;;;22.14
13304;BMP280;6720;51.958;4.540;2023-07-13T09:00:14;101490.94;;;22.29
13304;BMP280;6720;51.958;4.540;2023-07-13T09:03:16;101500.00;;;22.26
13304;BMP280;6720;51.958;4.540;2023-07-13T09:05:56;101490.50;;;22.21
13304;BMP280;6720;51.958;4.540;2023-07-13T09:15:59;101512.78;;;21.19
13304;BMP280;6720;51.958;4.540;2023-07-13T09:18:35;101521.94;;;21.13
13304;BMP280;6720;51.958;4.540;2023-07-13T09:21:25;101525.66;;;20.74
13304;BMP280;6720;51.958;4.540;2023-07-13T09:23:59;101520.00;;;20.80
13304;BMP280;6720;51.958;4.540;2023-07-13T09:26:28;101537.44;;;20.68
13304;BMP280;6720;51.958;4.540;2023-07-13T09:29:03;101528.25;;;20.38
13304;BMP280;6720;51.958;4.540;2023-07-13T09:31:42;101523.19;;;20.32
13304;BMP280;6720;51.958;4.540;2023-07-13T09:34:13;101520.81;;;20.63
13304;BMP280;6720;51.958;4.540;2023-07-13T09:36:38;101513.31;;;20.71
13304;BMP280;6720;51.958;4.540;2023-07-13T09:41:57;101514.16;;;20.90
13304;BMP280;6720;51.958;4.540;2023-07-13T09:44:30;101520.66;;;21.20
13304;BMP280;6720;51.958;4.540;2023-07-13T09:46:56;101528.66;;;21.20
13304;BMP280;6720;51.958;4.540;2023-07-13T09:49:27;101536.94;;;21.50
13304;BMP280;6720;51.958;4.540;2023-07-13T09:52:05;101534.50;;;21.63
13304;BMP280;6720;51.958;4.540;2023-07-13T09:54:33;101529.56;;;22.22
13304;BMP280;6720;51.958;4.540;2023-07-13T09:57:01;101532.34;;;22.53
13304;BMP280;6720;51.958;4.540;2023-07-13T09:59:33;101542.25;;;22.01
13304;BMP280;6720;51.958;4.540;2023-07-13T10:02:34;101548.00;;;21.77
13304;BMP280;6720;51.958;4.540;2023-07-13T10:05:25;101546.28;;;21.76
13304;BMP280;6720;51.958;4.540;2023-07-13T10:08:34;101556.59;;;21.48
13304;BMP280;6720;51.958;4.540;2023-07-13T10:11:21;101552.66;;;22.23
13304;BMP280;6720;51.958;4.540;2023-07-13T10:13:58;101553.88;;;22.50
13304;BMP280;6720;51.958;4.540;2023-07-13T10:16:28;101550.09;;;23.31
13304;BMP280;6720;51.958;4.540;2023-07-13T10:19:00;101557.13;;;23.48
13304;BMP280;6720;51.958;4.540;2023-07-13T10:21:32;101555.03;;;23.53
13304;BMP280;6720;51.958;4.540;2023-07-13T10:24:19;101561.47;;;23.94
13304;BMP280;6720;51.958;4.540;2023-07-13T10:29:46;101566.84;;;24.36
13304;BMP280;6720;51.958;4.540;2023-07-13T10:32:12;101564.47;;;23.88
13304;BMP280;6720;51.958;4.540;2023-07-13T10:34:39;101562.56;;;24.05
13304;BMP280;6720;51.958;4.540;2023-07-13T10:37:07;101569.16;;;24.28
13304;BMP280;6720;51.958;4.540;2023-07-13T10:39:38;101569.06;;;24.43
13304;BMP280;6720;51.958;4.540;2023-07-13T10:42:06;101568.69;;;24.78
13304;BMP280;6720;51.958;4.540;2023-07-13T10:44:34;101578.13;;;24.55
13304;BMP280;6720;51.958;4.540;2023-07-13T10:47:06;101587.25;;;25.07
13304;BMP280;6720;51.958;4.540;2023-07-13T10:49:35;101572.97;;;24.66
13304;BMP280;6720;51.958;4.540;2023-07-13T10:52:02;101581.53;;;24.99
13304;BMP280;6720;51.958;4.540;2023-07-13T10:59:33;101579.06;;;24.96
13304;BMP280;6720;51.958;4.540;2023-07-13T11:04:39;101579.56;;;25.29
13304;BMP280;6720;51.958;4.540;2023-07-13T11:09:59;101587.06;;;25.10
13304;BMP280;6720;51.958;4.540;2023-07-13T11:20:30;101572.28;;;25.70
13304;BMP280;6720;51.958;4.540;2023-07-13T11:25:37;101588.75;;;25.25
13304;BMP280;6720;51.958;4.540;2023-07-13T11:30:40;101607.22;;;24.75
13304;BMP280;6720;51.958;4.540;2023-07-13T11:36:06;101588.91;;;25.63
13304;BMP280;6720;51.958;4.540;2023-07-13T11:38:38;101582.91;;;25.84
13304;BMP280;6720;51.958;4.540;2023-07-13T11:41:16;101591.91;;;26.47
13304;BMP280;6720;51.958;4.540;2023-07-13T11:43:42;101591.06;;;26.59
13304;BMP280;6720;51.958;4.540;2023-07-13T11:46:22;101596.75;;;26.17
13304;BMP280;6720;51.958;4.540;2023-07-13T11:48:49;101599.06;;;24.91
13304;BMP280;6720;51.958;4.540;2023-07-13T11:51:22;101590.19;;;26.46
13304;BMP280;6720;51.958;4.540;2023-07-13T11:53:50;101597.28;;;26.35
13304;BMP280;6720;51.958;4.540;2023-07-13T11:56:17;101593.00;;;26.07
13304;BMP280;6720;51.958;4.540;2023-07-13T11:58:43;101592.09;;;26.44
13304;BMP280;6720;51.958;4.540;2023-07-13T12:01:20;101587.78;;;25.92
13304;BMP280;6720;51.958;4.540;2023-07-13T12:03:46;101597.72;;;26.41
13304;BMP280;6720;51.958;4.540;2023-07-13T12:06:28;101603.53;;;26.60
13304;BMP280;6720;51.958;4.540;2023-07-13T12:09:22;101600.50;;;26.52
13304;BMP280;6720;51.958;4.540;2023-07-13T12:12:01;101594.75;;;25.43
13304;BMP280;6720;51.958;4.540;2023-07-13T12:14:28;101595.06;;;25.90
13304;BMP280;6720;51.958;4.540;2023-07-13T12:16:54;101594.47;;;26.49
13304;BMP280;6720;51.958;4.540;2023-07-13T12:19:21;101599.34;;;26.31
13304;BMP280;6720;51.958;4.540;2023-07-13T12:21:49;101576.44;;;26.63
13304;BMP280;6720;51.958;4.540;2023-07-13T12:24:18;101593.81;;;26.58
13304;BMP280;6720;51.958;4.540;2023-07-13T12:26:50;101597.72;;;26.66
13304;BMP280;6720;51.958;4.540;2023-07-13T12:29:17;101598.03;;;26.12
13304;BMP280;6720;51.958;4.540;2023-07-13T12:31:46;101585.25;;;26.40
13304;BMP280;6720;51.958;4.540;2023-07-13T12:36:45;101595.13;;;26.02
13304;BMP280;6720;51.958;4.540;2023-07-13T12:39:35;101596.63;;;26.06
13304;BMP280;6720;51.958;4.540;2023-07-13T12:42:24;101599.22;;;26.20
13304;BMP280;6720;51.958;4.540;2023-07-13T12:44:56;101596.13;;;26.26
13304;BMP280;6720;51.958;4.540;2023-07-13T12:47:22;101597.69;;;26.54
13304;BMP280;6720;51.958;4.540;2023-07-13T12:49:50;101598.56;;;26.54
13304;BMP280;6720;51.958;4.540;2023-07-13T12:52:22;101588.63;;;26.92
13304;BMP280;6720;51.958;4.540;2023-07-13T12:54:59;101598.16;;;26.60
13304;BMP280;6720;51.958;4.540;2023-07-13T12:57:28;101594.53;;;27.33
13304;BMP280;6720;51.958;4.540;2023-07-13T13:00:04;101605.66;;;27.16
13304;BMP280;6720;51.958;4.540;2023-07-13T13:02:32;101599.84;;;27.22
13304;BMP280;6720;51.958;4.540;2023-07-13T13:05:01;101598.31;;;27.31
13304;BMP280;6720;51.958;4.540;2023-07-13T13:07:28;101614.91;;;27.12
13304;BMP280;6720;51.958;4.540;2023-07-13T13:09:54;101605.44;;;26.83
13304;BMP280;6720;51.958;4.540;2023-07-13T13:12:21;101603.47;;;26.85
13304;BMP280;6720;51.958;4.540;2023-07-13T13:14:46;101616.22;;;27.43
13304;BMP280;6720;51.958;4.540;2023-07-13T13:17:25;101610.50;;;27.11
13304;BMP280;6720;51.958;4.540;2023-07-13T13:19:52;101614.38;;;27.07
13304;BMP280;6720;51.958;4.540;2023-07-13T13:22:21;101618.16;;;27.05
13304;BMP280;6720;51.958;4.540;2023-07-13T13:24:47;101627.47;;;27.84
13304;BMP280;6720;51.958;4.540;2023-07-13T13:27:17;101617.91;;;26.72
13304;BMP280;6720;51.958;4.540;2023-07-13T13:29:44;101621.66;;;27.30
13304;BMP280;6720;51.958;4.540;2023-07-13T13:32:13;101621.91;;;26.66
13304;BMP280;6720;51.958;4.540;2023-07-13T13:34:38;101613.81;;;27.51
13304;BMP280;6720;51.958;4.540;2023-07-13T13:37:14;101612.66;;;27.42
13304;BMP280;6720;51.958;4.540;2023-07-13T13:39:41;101620.13;;;27.62
13304;BMP280;6720;51.958;4.540;2023-07-13T13:42:09;101637.34;;;27.36
13304;BMP280;6720;51.958;4.540;2023-07-13T13:44:34;101619.50;;;27.35
13304;BMP280;6720;51.958;4.540;2023-07-13T13:47:01;101618.69;;;27.46
13304;BMP280;6720;51.958;4.540;2023-07-13T13:49:28;101615.13;;;27.45
13304;BMP280;6720;51.958;4.540;2023-07-13T13:51:55;101613.22;;;26.99
13304;BMP280;6720;51.958;4.540;2023-07-13T13:54:23;101619.19;;;26.91
13304;BMP280;6720;51.958;4.540;2023-07-13T13:56:50;101617.44;;;27.62
13304;BMP280;6720;51.958;4.540;2023-07-13T13:59:16;101624.78;;;28.30
13304;BMP280;6720;51.958;4.540;2023-07-13T14:01:44;101621.63;;;28.47
13304;BMP280;6720;51.958;4.540;2023-07-13T14:04:16;101621.34;;;28.39
13304;BMP280;6720;51.958;4.540;2023-07-13T14:06:43;101626.19;;;27.17
13304;BMP280;6720;51.958;4.540;2023-07-13T14:09:11;101633.03;;;26.85
13304;BMP280;6720;51.958;4.540;2023-07-13T14:11:39;101623.94;;;26.50
13304;BMP280;6720;51.958;4.540;2023-07-13T14:14:12;101608.50;;;27.38
13304;BMP280;6720;51.958;4.540;2023-07-13T14:16:39;101624.06;;;27.69
13304;BMP280;6720;51.958;4.540;2023-07-13T14:19:09;101611.66;;;27.20
13304;BMP280;6720;51.958;4.540;2023-07-13T14:21:36;101611.28;;;27.60
13304;BMP280;6720;51.958;4.540;2023-07-13T14:24:02;101608.66;;;27.71
13304;BMP280;6720;51.958;4.540;2023-07-13T14:26:29;101617.53;;;27.37
13304;BMP280;6720;51.958;4.540;2023-07-13T14:28:56;101626.94;;;27.55
13304;BMP280;6720;51.958;4.540;2023-07-13T14:31:24;101631.59;;;27.17
13304;BMP280;6720;51.958;4.540;2023-07-13T14:33:49;101625.22;;;27.54
13304;BMP280;6720;51.958;4.540;2023-07-13T14:36:33;101633.25;;;27.43
13304;BMP280;6720;51.958;4.540;2023-07-13T14:39:05;101629.72;;;26.94
13304;BMP280;6720;51.958;4.540;2023-07-13T14:41:36;101631.13;;;26.87
13304;BMP280;6720;51.958;4.540;2023-07-13T14:44:11;101619.00;;;25.93
13304;BMP280;6720;51.958;4.540;2023-07-13T14:46:36;101621.34;;;26.86
13304;BMP280;6720;51.958;4.540;2023-07-13T14:49:13;101619.81;;;26.20
13304;BMP280;6720;51.958;4.540;2023-07-13T14:51:40;101624.78;;;26.51
13304;BMP280;6720;51.958;4.540;2023-07-13T14:54:08;101617.03;;;26.34
13304;BMP280;6720;51.958;4.540;2023-07-13T14:56:34;101617.91;;;26.34
13304;BMP280;6720;51.958;4.540;2023-07-13T14:58:59;101618.78;;;25.83